Currently 70°F in Perris, California, USA
70°F
72°F / 53°F
3 mph NW
0.00"
Saturday, September 23, 2017 1:03 PM PDT

Perris, California Weather Summary
Last 36 Hours

Temperature Winds Hourly Humidity Dewpoint
Time Report Norm Report Norm Max Gusts Precip. Rpt. Norm Rpt. Norm Pressure
1Sat 01:03 PM  69.5°F  87°F  3 mph NW  4 mph  6 mph  0.00"  51%  27%  50°F  47°F  N/A
Sat 01:00 PM  69.7°F  87°F  3 mph NW  4 mph  12 mph  0.00"  50%  27%  50°F  48°F  N/A
2Sat 12:44 PM  72.3°F  86°F  7 mph NW  4 mph  12 mph  ----  47%  28%  50°F  48°F  N/A
Sat 12:00 PM  67.3°F  85°F  4 mph SE  3 mph  10 mph  0.00"  56%  30%  51°F  49°F  N/A
Sat 11:00 AM  66.9°F  81°F  2 mph S  2 mph  11 mph  0.00"  61%  38%  53°F  52°F  N/A
Sat 10:00 AM  61.3°F  76°F  8 mph S  2 mph  11 mph  0.00"  77%  48%  54°F  54°F  N/A
Sat 09:00 AM  57.9°F  69°F  5 mph S  2 mph  9 mph  0.00"  90%  62%  55°F  55°F  N/A
Sat 08:00 AM  55.1°F  63°F  5 mph S  1 mph  6 mph  0.00"  96%  74%  54°F  54°F  N/A
Sat 07:00 AM  54.2°F  61°F  3 mph S  1 mph  7 mph  0.00"  96%  75%  53°F  53°F  N/A
Sat 06:00 AM  53.6°F  62°F  3 mph SE  1 mph  8 mph  0.00"  96%  74%  53°F  53°F  N/A
3Sat 05:39 AM  53.1°F  62°F  5 mph SE  1 mph  8 mph  ----  97%  74%  52°F  53°F  N/A
Sat 05:00 AM  53.5°F  63°F  4 mph S  1 mph  7 mph  0.00"  97%  73%  53°F  53°F  N/A
Sat 04:00 AM  54.6°F  64°F  2 mph S  1 mph  6 mph  0.00"  96%  71%  53°F  54°F  N/A
Sat 03:00 AM  55.8°F  65°F  2 mph S  1 mph  5 mph  0.00"  95%  70%  54°F  54°F  N/A
Sat 02:00 AM  56.7°F  66°F  3 mph SE  1 mph  5 mph  0.00"  91%  68%  54°F  54°F  N/A
Sat 01:00 AM  58.1°F  67°F  calm  1 mph  2 mph  0.00"  81%  65%  52°F  55°F  N/A
Sat 12:00 AM  59.0°F  68°F  1 mph SW  1 mph  6 mph  0.00"  81%  63%  53°F  55°F  N/A
Fri 11:00 PM  59.1°F  70°F  3 mph NW  2 mph  8 mph  0.00"  85%  60%  54°F  55°F  N/A
Fri 10:00 PM  59.4°F  71°F  4 mph W  2 mph  9 mph  0.00"  84%  57%  54°F  55°F  N/A
Fri 09:00 PM  60.5°F  73°F  6 mph NW  2 mph  10 mph  0.00"  79%  53%  54°F  54°F  N/A
Fri 08:00 PM  62.1°F  76°F  5 mph NW  3 mph  14 mph  0.00"  69%  47%  51°F  53°F  N/A
Fri 07:00 PM  65.1°F  79°F  7 mph NW  4 mph  15 mph  0.00"  63%  40%  52°F  52°F  N/A
Fri 06:00 PM  68.6°F  83°F  6 mph W  6 mph  15 mph  0.00"  52%  32%  50°F  49°F  N/A
Fri 05:00 PM  71.4°F  86°F  7 mph W  6 mph  13 mph  0.00"  43%  28%  47°F  48°F  N/A
Fri 04:00 PM  71.5°F  88°F  7 mph W  6 mph  15 mph  0.00"  43%  26%  47°F  48°F  N/A
Fri 03:00 PM  71.8°F  89°F  6 mph NW  5 mph  15 mph  0.00"  42%  25%  47°F  47°F  N/A
Fri 02:00 PM  71.1°F  88°F  5 mph W  5 mph  15 mph  0.00"  44%  25%  47°F  47°F  N/A
Fri 01:00 PM  68.6°F  87°F  6 mph NW  4 mph  12 mph  0.00"  46%  27%  47°F  48°F  N/A
Fri 12:00 PM  68.6°F  85°F  1 mph S  3 mph  11 mph  0.00"  54%  31%  51°F  50°F  N/A
Fri 11:00 AM  64.7°F  81°F  4 mph W  2 mph  10 mph  0.00"  63%  39%  51°F  52°F  N/A
Fri 10:00 AM  61.0°F  76°F  1 mph S  2 mph  10 mph  0.00"  74%  49%  52°F  54°F  N/A
Fri 09:00 AM  57.2°F  69°F  6 mph SW  1 mph  7 mph  0.00"  81%  63%  51°F  56°F  N/A
Fri 08:00 AM  53.1°F  63°F  3 mph SE  1 mph  6 mph  0.00"  89%  75%  50°F  54°F  N/A
Fri 07:00 AM  51.9°F  61°F  2 mph S  1 mph  4 mph  0.00"  93%  76%  50°F  54°F  N/A
Fri 06:00 AM  51.6°F  62°F  2 mph SE  1 mph  5 mph  0.00"  95%  75%  50°F  54°F  N/A
Fri 05:00 AM  51.7°F  63°F  2 mph SE  1 mph  6 mph  0.00"  96%  74%  50°F  54°F  N/A
Fri 04:00 AM  52.4°F  64°F  3 mph S  1 mph  6 mph  0.00"  95%  72%  51°F  54°F  N/A
Fri 03:00 AM  53.1°F  65°F  4 mph SE  1 mph  7 mph  0.00"  94%  71%  51°F  55°F  N/A
Fri 02:00 AM  53.5°F  66°F  5 mph S  1 mph  8 mph  0.00"  90%  69%  50°F  55°F  N/A

  1. Current weather data. No green row appears if the current weather data is also the high or low for the current day.
  2. High temperature for the current day.
  3. Low temperature for the current day.

The Perris, California weather pages are a service of WeatherCurrents. Perris is located in Southern California's Inland Empire, south of Riverside and north of Sun City, along the Interstate 215 freeway.
Copyright ©Sat Sep 23 13:04:10 PDT 2017  WeatherCurrents. All rights reserved. - Submit questions and comments - Privacy Policy

This page automatically refreshes every 10 minutes.